Time,TemperatureF,DewpointF,PressureIn,WindDirection,WindDirectionDegrees,WindSpeedMPH,WindSpeedGustMPH,Humidity,HourlyPrecipIn,Conditions,Clouds,dailyrainin,SoftwareType,DateUTC
2013-07-12 04:22:00,72.0,65.0,29.92,NE,35,3.0,6.0,78,0.00,,,0.00,,2013-07-12 08:22:00,
2013-07-12 04:32:00,72.0,64.0,29.93,NE,35,3.0,6.0,77,0.00,,,0.00,,2013-07-12 08:32:00,
2013-07-12 04:42:00,72.0,64.0,29.93,NE,34,3.0,6.0,77,0.00,,,0.00,,2013-07-12 08:42:00,
2013-07-12 04:53:00,72.0,65.0,29.93,NE,46,2.0,5.0,78,0.00,,,0.00,,2013-07-12 08:53:00,
2013-07-12 05:02:00,72.0,65.0,29.93,NE,35,2.0,7.0,78,0.00,,,0.00,,2013-07-12 09:02:00,
2013-07-12 05:13:00,72.0,65.0,29.93,NE,35,2.0,7.0,78,0.00,,,0.00,,2013-07-12 09:13:00,
2013-07-12 05:32:00,72.0,65.0,29.94,ENE,61,1.0,3.0,79,0.00,,,0.00,,2013-07-12 09:32:00,
2013-07-12 05:43:00,72.0,65.0,29.94,NE,52,1.0,5.0,79,0.00,,,0.00,,2013-07-12 09:43:00,
2013-07-12 05:52:00,72.0,65.0,29.94,NE,44,3.0,7.0,79,0.00,,,0.00,,2013-07-12 09:52:00,
2013-07-12 06:01:00,72.0,65.0,29.95,NNE,27,1.0,3.0,79,0.00,,,0.00,,2013-07-12 10:01:00,
2013-07-12 06:33:00,72.0,65.0,29.96,NNE,13,1.0,5.0,79,0.00,,,0.00,,2013-07-12 10:33:00,
2013-07-12 06:42:00,72.0,65.0,29.96,NE,47,2.0,3.0,78,0.00,,,0.00,,2013-07-12 10:42:00,
2013-07-12 06:52:00,72.0,64.0,29.97,NE,39,2.0,5.0,77,0.00,,,0.00,,2013-07-12 10:52:00,
2013-07-12 07:12:00,72.0,64.0,29.97,NNE,32,2.0,8.0,76,0.00,,,0.00,,2013-07-12 11:12:00,
2013-07-12 07:53:00,72.0,64.0,29.97,NE,36,3.0,8.0,77,0.00,,,0.00,,2013-07-12 11:53:00,
2013-07-12 08:02:00,72.0,65.0,29.98,NE,42,2.0,6.0,78,0.00,,,0.00,,2013-07-12 12:02:00,
2013-07-12 08:11:00,72.0,65.0,29.98,NNE,32,2.0,8.0,78,0.00,,,0.00,,2013-07-12 12:11:00,
2013-07-12 08:22:00,73.0,65.0,29.98,NE,35,3.0,6.0,77,0.00,,,0.00,,2013-07-12 12:22:00,
2013-07-12 08:32:00,73.0,65.0,29.98,NNE,29,5.0,13.0,75,0.00,,,0.00,,2013-07-12 12:32:00,
2013-07-12 08:43:00,74.0,65.0,29.98,NE,45,6.0,13.0,74,0.00,,,0.00,,2013-07-12 12:43:00,
2013-07-12 08:52:00,75.0,66.0,29.98,NE,53,5.0,14.0,73,0.00,,,0.00,,2013-07-12 12:52:00,
2013-07-12 09:01:00,75.0,66.0,29.99,NE,43,6.0,13.0,73,0.00,,,0.00,,2013-07-12 13:01:00,
2013-07-12 09:32:00,74.0,65.0,30.00,ENE,66,5.0,15.0,73,0.00,,,0.00,,2013-07-12 13:32:00,
2013-07-12 10:02:00,75.0,66.0,30.00,East,94,6.0,12.0,74,0.00,,,0.00,,2013-07-12 14:02:00,
2013-07-12 10:12:00,75.0,67.0,30.00,NE,41,3.0,12.0,75,0.00,,,0.00,,2013-07-12 14:12:00,
2013-07-12 10:44:00,75.0,66.0,30.01,NE,47,6.0,14.0,74,0.00,,,0.00,,2013-07-12 14:44:00,
2013-07-12 10:53:00,75.0,66.0,30.01,North,10,5.0,12.0,74,0.00,,,0.00,,2013-07-12 14:53:00,
2013-07-12 11:33:00,75.0,67.0,30.01,NE,42,4.0,12.0,76,0.00,,,0.00,,2013-07-12 15:33:00,
2013-07-12 12:02:00,75.0,67.0,30.02,North,356,6.0,13.0,77,0.00,,,0.00,,2013-07-12 16:02:00,
2013-07-12 12:11:00,74.0,67.0,30.02,East,93,6.0,13.0,78,0.00,,,0.00,,2013-07-12 16:11:00,
2013-07-12 12:43:00,75.0,68.0,30.02,ENE,65,6.0,10.0,79,0.00,,,0.00,,2013-07-12 16:43:00,
2013-07-12 12:58:00,75.0,68.0,30.02,NNE,20,3.0,9.0,79,0.00,,,0.00,,2013-07-12 16:58:00,
2013-07-12 13:07:00,75.0,68.0,30.02,ENE,69,3.0,13.0,79,0.00,,,0.00,,2013-07-12 17:07:00,
2013-07-12 13:45:00,75.0,68.0,30.02,NNE,13,6.0,13.0,78,0.00,,,0.00,,2013-07-12 17:45:00,
2013-07-12 13:54:00,75.0,68.0,30.02,NE,37,6.0,12.0,78,0.00,,,0.00,,2013-07-12 17:54:00,
2013-07-12 14:07:00,75.0,68.0,30.02,ENE,68,5.0,12.0,79,0.00,,,0.00,,2013-07-12 18:07:00,
2013-07-12 14:34:00,76.0,69.0,30.01,ENE,61,5.0,12.0,79,0.00,,,0.00,,2013-07-12 18:34:00,
2013-07-12 14:56:00,75.0,68.0,30.02,NNE,29,3.0,7.0,80,0.00,,,0.00,,2013-07-12 18:56:00,
2013-07-12 15:05:00,75.0,68.0,30.02,East,82,5.0,8.0,78,0.00,,,0.00,,2013-07-12 19:05:00,
2013-07-12 15:15:00,75.0,68.0,30.02,ENE,63,3.0,8.0,78,0.00,,,0.00,,2013-07-12 19:15:00,
2013-07-12 15:46:00,76.0,68.0,30.01,East,91,5.0,12.0,77,0.00,,,0.00,,2013-07-12 19:46:00,
2013-07-12 15:57:00,76.0,69.0,30.01,NNE,27,4.0,12.0,78,0.00,,,0.00,,2013-07-12 19:57:00,
2013-07-12 16:34:00,76.0,69.0,30.01,East,88,3.0,8.0,79,0.00,,,0.00,,2013-07-12 20:34:00,
2013-07-12 16:54:00,76.0,69.0,30.01,East,85,6.0,13.0,78,0.00,,,0.00,,2013-07-12 20:54:00,
2013-07-12 17:46:00,75.0,69.0,30.02,ENE,60,3.0,8.0,81,0.00,,,0.00,,2013-07-12 21:46:00,
2013-07-12 18:04:00,75.0,70.0,30.02,ENE,66,1.0,5.0,84,0.00,,,0.00,,2013-07-12 22:04:00,
2013-07-12 18:45:00,73.0,70.0,30.03,SE,136,2.0,3.0,91,0.01,,,0.01,,2013-07-12 22:45:00,
2013-07-12 19:05:00,72.0,69.0,30.03,ENE,74,3.0,8.0,91,0.01,,,0.01,,2013-07-12 23:05:00,
2013-07-12 19:26:00,72.0,69.0,30.04,NNE,25,2.0,7.0,91,0.01,,,0.01,,2013-07-12 23:26:00,
2013-07-12 19:35:00,71.0,68.0,30.04,NE,49,4.0,9.0,91,0.01,,,0.01,,2013-07-12 23:35:00,
2013-07-12 19:44:00,71.0,69.0,30.04,ENE,78,3.0,9.0,93,0.01,,,0.02,,2013-07-12 23:44:00,
2013-07-12 19:55:00,71.0,69.0,30.04,ESE,114,2.0,3.0,94,0.03,,,0.04,,2013-07-12 23:55:00,
2013-07-12 20:08:00,70.0,68.0,30.04,NE,34,3.0,7.0,94,0.10,,,0.11,,2013-07-13 00:08:00,
2013-07-12 20:18:00,70.0,68.0,30.05,ENE,60,3.0,8.0,94,0.12,,,0.13,,2013-07-13 00:18:00,
2013-07-12 20:33:00,70.0,68.0,30.05,NNE,31,3.0,10.0,95,0.15,,,0.16,,2013-07-13 00:33:00,
2013-07-12 20:47:00,70.0,68.0,30.05,ENE,58,3.0,10.0,95,0.19,,,0.21,,2013-07-13 00:47:00,
2013-07-12 21:05:00,69.0,68.0,30.05,ENE,67,3.0,12.0,95,0.17,,,0.23,,2013-07-13 01:05:00,
2013-07-12 21:13:00,69.0,68.0,30.05,ENE,68,5.0,9.0,95,0.10,,,0.23,,2013-07-13 01:13:00,
2013-07-12 21:24:00,69.0,68.0,30.05,ENE,68,5.0,9.0,95,0.10,,,0.23,,2013-07-13 01:24:00,
2013-07-12 21:39:00,69.0,67.0,30.05,NNE,24,2.0,8.0,94,0.08,,,0.23,,2013-07-13 01:39:00,
2013-07-12 21:47:00,69.0,67.0,30.05,NNE,27,4.0,12.0,94,0.07,,,0.23,,2013-07-13 01:47:00,
2013-07-12 21:56:00,69.0,67.0,30.07,ESE,122,5.0,12.0,94,0.02,,,0.24,,2013-07-13 01:56:00,
2013-07-12 22:07:00,69.0,68.0,30.07,ENE,72,4.0,12.0,95,0.02,,,0.25,,2013-07-13 02:07:00,
2013-07-12 22:26:00,69.0,68.0,30.07,NE,43,4.0,9.0,95,0.03,,,0.26,,2013-07-13 02:26:00,
2013-07-12 22:46:00,69.0,68.0,30.08,NE,34,3.0,10.0,95,0.13,,,0.37,,2013-07-13 02:46:00,
2013-07-12 23:06:00,68.0,67.0,30.07,NNE,23,6.0,14.0,96,0.20,,,0.45,,2013-07-13 03:06:00,
2013-07-12 23:40:00,68.0,67.0,30.08,NE,52,6.0,10.0,96,0.02,,,0.47,,2013-07-13 03:40:00,